sensor_id;sensor_type;location;lat;lon;timestamp;temperature;humidity
83019;DHT22;72834;40.104;18.336;2024-01-15T00:01:30;9.80;99.90
83019;DHT22;72834;40.104;18.336;2024-01-15T00:03:56;9.70;99.90
83019;DHT22;72834;40.104;18.336;2024-01-15T00:06:23;9.70;99.90
83019;DHT22;72834;40.104;18.336;2024-01-15T00:08:49;9.80;99.90
83019;DHT22;72834;40.104;18.336;2024-01-15T00:11:16;9.80;99.90
83019;DHT22;72834;40.104;18.336;2024-01-15T00:13:42;9.90;99.90
83019;DHT22;72834;40.104;18.336;2024-01-15T00:16:08;10.00;99.90
83019;DHT22;72834;40.104;18.336;2024-01-15T00:18:35;10.00;99.90
83019;DHT22;72834;40.104;18.336;2024-01-15T00:21:01;10.00;99.90
83019;DHT22;72834;40.104;18.336;2024-01-15T00:23:27;10.00;99.90
83019;DHT22;72834;40.104;18.336;2024-01-15T00:25:54;9.90;99.90
83019;DHT22;72834;40.104;18.336;2024-01-15T00:28:20;10.00;99.90
83019;DHT22;72834;40.104;18.336;2024-01-15T00:30:46;10.00;99.90
83019;DHT22;72834;40.104;18.336;2024-01-15T00:33:12;10.10;99.90
83019;DHT22;72834;40.104;18.336;2024-01-15T00:35:40;10.00;99.90
83019;DHT22;72834;40.104;18.336;2024-01-15T00:38:07;10.00;99.90
83019;DHT22;72834;40.104;18.336;2024-01-15T00:40:34;9.90;99.90
83019;DHT22;72834;40.104;18.336;2024-01-15T00:43:00;9.90;99.90
83019;DHT22;72834;40.104;18.336;2024-01-15T00:45:28;9.90;99.90
83019;DHT22;72834;40.104;18.336;2024-01-15T00:47:54;9.90;99.90
83019;DHT22;72834;40.104;18.336;2024-01-15T00:50:22;9.90;99.90
83019;DHT22;72834;40.104;18.336;2024-01-15T00:52:48;9.90;99.90
83019;DHT22;72834;40.104;18.336;2024-01-15T00:55:14;9.90;99.90
83019;DHT22;72834;40.104;18.336;2024-01-15T00:57:41;9.90;99.90
83019;DHT22;72834;40.104;18.336;2024-01-15T01:00:07;9.90;99.90
83019;DHT22;72834;40.104;18.336;2024-01-15T01:02:35;9.90;99.90
83019;DHT22;72834;40.104;18.336;2024-01-15T01:05:01;9.90;99.90
83019;DHT22;72834;40.104;18.336;2024-01-15T01:07:28;9.80;99.90
83019;DHT22;72834;40.104;18.336;2024-01-15T01:09:54;9.90;99.90
83019;DHT22;72834;40.104;18.336;2024-01-15T01:12:21;9.90;99.90
83019;DHT22;72834;40.104;18.336;2024-01-15T01:14:47;9.80;99.90
83019;DHT22;72834;40.104;18.336;2024-01-15T01:17:13;9.80;99.90
83019;DHT22;72834;40.104;18.336;2024-01-15T01:19:40;9.90;99.90
83019;DHT22;72834;40.104;18.336;2024-01-15T01:22:06;9.80;99.90
83019;DHT22;72834;40.104;18.336;2024-01-15T01:24:32;9.80;99.90
83019;DHT22;72834;40.104;18.336;2024-01-15T01:26:59;9.80;99.90
83019;DHT22;72834;40.104;18.336;2024-01-15T01:29:25;9.80;99.90
83019;DHT22;72834;40.104;18.336;2024-01-15T01:31:52;9.80;99.90
83019;DHT22;72834;40.104;18.336;2024-01-15T01:34:19;9.80;99.90
83019;DHT22;72834;40.104;18.336;2024-01-15T01:36:46;9.80;99.90
83019;DHT22;72834;40.104;18.336;2024-01-15T01:39:12;9.80;99.90
83019;DHT22;72834;40.104;18.336;2024-01-15T01:41:38;9.80;99.90
83019;DHT22;72834;40.104;18.336;2024-01-15T01:44:05;9.80;99.90
83019;DHT22;72834;40.104;18.336;2024-01-15T01:46:31;9.90;99.90
83019;DHT22;72834;40.104;18.336;2024-01-15T01:48:59;9.90;99.90
83019;DHT22;72834;40.104;18.336;2024-01-15T01:51:31;9.80;99.90
83019;DHT22;72834;40.104;18.336;2024-01-15T01:53:58;9.80;99.90
83019;DHT22;72834;40.104;18.336;2024-01-15T01:56:24;9.80;99.90
83019;DHT22;72834;40.104;18.336;2024-01-15T01:58:50;9.80;99.90
83019;DHT22;72834;40.104;18.336;2024-01-15T02:01:17;9.80;99.90
83019;DHT22;72834;40.104;18.336;2024-01-15T02:03:44;9.90;99.90
83019;DHT22;72834;40.104;18.336;2024-01-15T02:06:11;9.90;99.90
83019;DHT22;72834;40.104;18.336;2024-01-15T02:08:38;9.90;99.90
83019;DHT22;72834;40.104;18.336;2024-01-15T02:11:04;10.00;99.90
83019;DHT22;72834;40.104;18.336;2024-01-15T02:13:30;10.00;99.90
83019;DHT22;72834;40.104;18.336;2024-01-15T02:15:57;10.00;99.90
83019;DHT22;72834;40.104;18.336;2024-01-15T02:18:23;10.10;99.90
83019;DHT22;72834;40.104;18.336;2024-01-15T02:20:49;10.00;99.90
83019;DHT22;72834;40.104;18.336;2024-01-15T02:23:16;10.00;99.90
83019;DHT22;72834;40.104;18.336;2024-01-15T02:25:47;10.00;99.90
83019;DHT22;72834;40.104;18.336;2024-01-15T02:28:15;10.00;99.90
83019;DHT22;72834;40.104;18.336;2024-01-15T02:30:42;10.10;99.90
83019;DHT22;72834;40.104;18.336;2024-01-15T02:33:10;10.10;99.90
83019;DHT22;72834;40.104;18.336;2024-01-15T02:35:36;10.10;99.90
83019;DHT22;72834;40.104;18.336;2024-01-15T02:38:04;10.10;99.90
83019;DHT22;72834;40.104;18.336;2024-01-15T02:40:31;10.20;99.90
83019;DHT22;72834;40.104;18.336;2024-01-15T02:42:57;10.20;99.90
83019;DHT22;72834;40.104;18.336;2024-01-15T02:45:24;10.20;99.90
83019;DHT22;72834;40.104;18.336;2024-01-15T02:47:50;10.20;99.90
83019;DHT22;72834;40.104;18.336;2024-01-15T02:50:16;10.10;99.90
83019;DHT22;72834;40.104;18.336;2024-01-15T02:52:43;10.10;99.90
83019;DHT22;72834;40.104;18.336;2024-01-15T02:55:09;10.00;99.90
83019;DHT22;72834;40.104;18.336;2024-01-15T02:57:35;10.00;99.90
83019;DHT22;72834;40.104;18.336;2024-01-15T03:00:02;10.00;99.90
83019;DHT22;72834;40.104;18.336;2024-01-15T03:02:30;10.10;99.90
83019;DHT22;72834;40.104;18.336;2024-01-15T03:04:57;10.10;99.90
83019;DHT22;72834;40.104;18.336;2024-01-15T03:07:24;10.10;99.90
83019;DHT22;72834;40.104;18.336;2024-01-15T03:09:50;10.10;99.90
83019;DHT22;72834;40.104;18.336;2024-01-15T03:12:16;10.20;99.90
83019;DHT22;72834;40.104;18.336;2024-01-15T03:14:44;10.20;99.90
83019;DHT22;72834;40.104;18.336;2024-01-15T03:17:10;10.20;99.90
83019;DHT22;72834;40.104;18.336;2024-01-15T03:19:38;10.20;99.90
83019;DHT22;72834;40.104;18.336;2024-01-15T03:22:04;10.20;99.90
83019;DHT22;72834;40.104;18.336;2024-01-15T03:24:31;10.30;99.90
83019;DHT22;72834;40.104;18.336;2024-01-15T03:26:58;10.20;99.90
83019;DHT22;72834;40.104;18.336;2024-01-15T03:29:25;10.20;99.90
83019;DHT22;72834;40.104;18.336;2024-01-15T03:31:51;10.20;99.90
83019;DHT22;72834;40.104;18.336;2024-01-15T03:34:18;10.30;99.90
83019;DHT22;72834;40.104;18.336;2024-01-15T03:36:45;10.30;99.90
83019;DHT22;72834;40.104;18.336;2024-01-15T03:39:11;10.40;99.90
83019;DHT22;72834;40.104;18.336;2024-01-15T03:41:37;10.40;99.90
83019;DHT22;72834;40.104;18.336;2024-01-15T03:44:03;10.40;99.90
83019;DHT22;72834;40.104;18.336;2024-01-15T03:46:30;10.40;99.90
83019;DHT22;72834;40.104;18.336;2024-01-15T03:48:56;10.30;99.90
83019;DHT22;72834;40.104;18.336;2024-01-15T03:51:23;10.30;99.90
83019;DHT22;72834;40.104;18.336;2024-01-15T03:53:49;10.30;99.90
83019;DHT22;72834;40.104;18.336;2024-01-15T03:56:15;10.20;99.90
83019;DHT22;72834;40.104;18.336;2024-01-15T03:58:42;10.20;99.90
83019;DHT22;72834;40.104;18.336;2024-01-15T04:01:09;10.20;99.90
83019;DHT22;72834;40.104;18.336;2024-01-15T04:03:36;10.20;99.90
83019;DHT22;72834;40.104;18.336;2024-01-15T04:06:03;10.20;99.90
83019;DHT22;72834;40.104;18.336;2024-01-15T04:08:30;10.20;99.90
83019;DHT22;72834;40.104;18.336;2024-01-15T04:10:56;10.20;99.90
83019;DHT22;72834;40.104;18.336;2024-01-15T04:13:23;10.20;99.90
83019;DHT22;72834;40.104;18.336;2024-01-15T04:15:49;10.20;99.90
83019;DHT22;72834;40.104;18.336;2024-01-15T04:18:16;10.20;99.90
83019;DHT22;72834;40.104;18.336;2024-01-15T04:20:43;10.30;99.90
83019;DHT22;72834;40.104;18.336;2024-01-15T04:23:10;10.30;99.90
83019;DHT22;72834;40.104;18.336;2024-01-15T04:25:36;10.30;99.90
83019;DHT22;72834;40.104;18.336;2024-01-15T04:28:03;10.40;99.90
83019;DHT22;72834;40.104;18.336;2024-01-15T04:30:29;10.40;99.90
83019;DHT22;72834;40.104;18.336;2024-01-15T04:32:55;10.40;99.90
83019;DHT22;72834;40.104;18.336;2024-01-15T04:35:21;10.50;99.90
83019;DHT22;72834;40.104;18.336;2024-01-15T04:37:48;10.50;99.90
83019;DHT22;72834;40.104;18.336;2024-01-15T04:40:14;10.50;99.90
83019;DHT22;72834;40.104;18.336;2024-01-15T04:42:40;10.60;99.90
83019;DHT22;72834;40.104;18.336;2024-01-15T04:45:07;10.60;99.90
83019;DHT22;72834;40.104;18.336;2024-01-15T04:47:33;10.70;99.90
83019;DHT22;72834;40.104;18.336;2024-01-15T04:49:59;10.70;99.90
83019;DHT22;72834;40.104;18.336;2024-01-15T04:52:26;10.70;99.90
83019;DHT22;72834;40.104;18.336;2024-01-15T04:54:52;10.70;99.90
83019;DHT22;72834;40.104;18.336;2024-01-15T04:57:18;10.80;99.90
83019;DHT22;72834;40.104;18.336;2024-01-15T04:59:44;10.80;99.90
83019;DHT22;72834;40.104;18.336;2024-01-15T05:02:10;10.80;99.90
83019;DHT22;72834;40.104;18.336;2024-01-15T05:04:37;10.80;99.90
83019;DHT22;72834;40.104;18.336;2024-01-15T05:07:03;10.90;99.90
83019;DHT22;72834;40.104;18.336;2024-01-15T05:09:29;10.90;99.90
83019;DHT22;72834;40.104;18.336;2024-01-15T05:11:56;10.90;99.90
83019;DHT22;72834;40.104;18.336;2024-01-15T05:14:22;11.00;99.90
83019;DHT22;72834;40.104;18.336;2024-01-15T05:16:48;11.00;99.90
83019;DHT22;72834;40.104;18.336;2024-01-15T05:19:15;11.00;99.90
83019;DHT22;72834;40.104;18.336;2024-01-15T05:21:41;11.00;99.90
83019;DHT22;72834;40.104;18.336;2024-01-15T05:24:08;11.10;99.90
83019;DHT22;72834;40.104;18.336;2024-01-15T05:26:34;11.10;99.90
83019;DHT22;72834;40.104;18.336;2024-01-15T05:29:00;11.10;99.90
83019;DHT22;72834;40.104;18.336;2024-01-15T05:31:27;11.10;99.90
83019;DHT22;72834;40.104;18.336;2024-01-15T05:33:53;11.10;99.90
83019;DHT22;72834;40.104;18.336;2024-01-15T05:36:19;11.10;99.90
83019;DHT22;72834;40.104;18.336;2024-01-15T05:38:45;11.20;99.90
83019;DHT22;72834;40.104;18.336;2024-01-15T05:41:12;11.20;99.90
83019;DHT22;72834;40.104;18.336;2024-01-15T05:43:39;11.20;99.90
83019;DHT22;72834;40.104;18.336;2024-01-15T05:46:05;11.20;99.90
83019;DHT22;72834;40.104;18.336;2024-01-15T05:48:31;11.20;99.90
83019;DHT22;72834;40.104;18.336;2024-01-15T05:50:57;11.30;99.90
83019;DHT22;72834;40.104;18.336;2024-01-15T05:53:24;11.30;99.90
83019;DHT22;72834;40.104;18.336;2024-01-15T05:55:50;11.30;99.90
83019;DHT22;72834;40.104;18.336;2024-01-15T05:58:16;11.30;99.90
83019;DHT22;72834;40.104;18.336;2024-01-15T06:00:42;11.30;99.90
83019;DHT22;72834;40.104;18.336;2024-01-15T06:03:09;11.30;99.90
83019;DHT22;72834;40.104;18.336;2024-01-15T06:05:35;11.40;99.90
83019;DHT22;72834;40.104;18.336;2024-01-15T06:08:01;11.40;99.90
83019;DHT22;72834;40.104;18.336;2024-01-15T06:10:28;11.40;99.90
83019;DHT22;72834;40.104;18.336;2024-01-15T06:12:54;11.40;99.90
83019;DHT22;72834;40.104;18.336;2024-01-15T06:15:20;11.40;99.90
83019;DHT22;72834;40.104;18.336;2024-01-15T06:17:47;11.40;99.90
83019;DHT22;72834;40.104;18.336;2024-01-15T06:20:13;11.40;99.90
83019;DHT22;72834;40.104;18.336;2024-01-15T06:22:39;11.40;99.90
83019;DHT22;72834;40.104;18.336;2024-01-15T06:25:07;11.40;99.90
83019;DHT22;72834;40.104;18.336;2024-01-15T06:27:34;11.40;99.90
83019;DHT22;72834;40.104;18.336;2024-01-15T06:30:00;11.40;99.90
83019;DHT22;72834;40.104;18.336;2024-01-15T06:32:28;11.40;99.90
83019;DHT22;72834;40.104;18.336;2024-01-15T06:34:54;11.40;99.90
83019;DHT22;72834;40.104;18.336;2024-01-15T06:37:20;11.40;99.90
83019;DHT22;72834;40.104;18.336;2024-01-15T06:39:46;11.40;99.90
83019;DHT22;72834;40.104;18.336;2024-01-15T06:42:13;11.50;99.90
83019;DHT22;72834;40.104;18.336;2024-01-15T06:44:39;11.50;99.90
83019;DHT22;72834;40.104;18.336;2024-01-15T06:47:05;11.50;99.90
83019;DHT22;72834;40.104;18.336;2024-01-15T06:49:32;11.50;99.90
83019;DHT22;72834;40.104;18.336;2024-01-15T06:51:58;11.50;99.90
83019;DHT22;72834;40.104;18.336;2024-01-15T06:54:24;11.60;99.90
83019;DHT22;72834;40.104;18.336;2024-01-15T06:56:52;11.60;99.90
83019;DHT22;72834;40.104;18.336;2024-01-15T06:59:18;11.60;99.90
83019;DHT22;72834;40.104;18.336;2024-01-15T07:01:44;11.60;99.90
83019;DHT22;72834;40.104;18.336;2024-01-15T07:04:11;11.60;99.90
83019;DHT22;72834;40.104;18.336;2024-01-15T07:06:37;11.60;99.90
83019;DHT22;72834;40.104;18.336;2024-01-15T07:09:03;11.70;99.90
83019;DHT22;72834;40.104;18.336;2024-01-15T07:11:29;11.70;99.90
83019;DHT22;72834;40.104;18.336;2024-01-15T07:13:56;11.70;99.90
83019;DHT22;72834;40.104;18.336;2024-01-15T07:16:22;11.70;99.90
83019;DHT22;72834;40.104;18.336;2024-01-15T07:18:48;11.80;99.90
83019;DHT22;72834;40.104;18.336;2024-01-15T07:21:14;11.80;99.90
83019;DHT22;72834;40.104;18.336;2024-01-15T07:23:41;11.80;99.90
83019;DHT22;72834;40.104;18.336;2024-01-15T07:26:08;11.80;99.90
83019;DHT22;72834;40.104;18.336;2024-01-15T07:28:35;11.90;99.90
83019;DHT22;72834;40.104;18.336;2024-01-15T07:31:02;11.90;99.90
83019;DHT22;72834;40.104;18.336;2024-01-15T07:33:30;12.00;99.90
83019;DHT22;72834;40.104;18.336;2024-01-15T07:35:56;12.10;99.90
83019;DHT22;72834;40.104;18.336;2024-01-15T07:38:22;12.10;99.90
83019;DHT22;72834;40.104;18.336;2024-01-15T07:40:48;12.20;99.90
83019;DHT22;72834;40.104;18.336;2024-01-15T07:43:15;12.20;99.90
83019;DHT22;72834;40.104;18.336;2024-01-15T07:45:41;12.30;99.90
83019;DHT22;72834;40.104;18.336;2024-01-15T07:48:08;12.30;99.90
83019;DHT22;72834;40.104;18.336;2024-01-15T07:50:35;12.30;99.90
83019;DHT22;72834;40.104;18.336;2024-01-15T07:53:01;12.30;99.90
83019;DHT22;72834;40.104;18.336;2024-01-15T07:55:27;12.40;99.90
83019;DHT22;72834;40.104;18.336;2024-01-15T07:57:54;12.40;99.90
83019;DHT22;72834;40.104;18.336;2024-01-15T08:00:25;12.40;99.90
83019;DHT22;72834;40.104;18.336;2024-01-15T08:02:51;12.40;99.90
83019;DHT22;72834;40.104;18.336;2024-01-15T08:05:19;12.50;99.90
83019;DHT22;72834;40.104;18.336;2024-01-15T08:07:47;12.50;99.90
83019;DHT22;72834;40.104;18.336;2024-01-15T08:10:13;12.50;99.90
83019;DHT22;72834;40.104;18.336;2024-01-15T08:12:40;12.50;99.90
83019;DHT22;72834;40.104;18.336;2024-01-15T08:15:06;12.60;99.90
83019;DHT22;72834;40.104;18.336;2024-01-15T08:17:32;12.60;99.90
83019;DHT22;72834;40.104;18.336;2024-01-15T08:19:59;12.60;99.90
83019;DHT22;72834;40.104;18.336;2024-01-15T08:22:26;12.60;99.90
83019;DHT22;72834;40.104;18.336;2024-01-15T08:24:52;12.60;99.90
83019;DHT22;72834;40.104;18.336;2024-01-15T08:27:19;12.60;99.90
83019;DHT22;72834;40.104;18.336;2024-01-15T08:29:45;12.70;99.90
83019;DHT22;72834;40.104;18.336;2024-01-15T08:32:12;12.70;99.90
83019;DHT22;72834;40.104;18.336;2024-01-15T08:34:41;12.70;99.90
83019;DHT22;72834;40.104;18.336;2024-01-15T08:37:08;12.70;99.90
83019;DHT22;72834;40.104;18.336;2024-01-15T08:39:34;12.80;99.90
83019;DHT22;72834;40.104;18.336;2024-01-15T08:42:05;12.80;99.90
83019;DHT22;72834;40.104;18.336;2024-01-15T08:44:31;12.80;99.90
83019;DHT22;72834;40.104;18.336;2024-01-15T08:46:57;12.90;99.90
83019;DHT22;72834;40.104;18.336;2024-01-15T08:49:24;12.90;99.90
83019;DHT22;72834;40.104;18.336;2024-01-15T08:51:50;12.90;99.90
83019;DHT22;72834;40.104;18.336;2024-01-15T08:54:16;13.00;99.90
83019;DHT22;72834;40.104;18.336;2024-01-15T08:56:44;13.00;99.90
83019;DHT22;72834;40.104;18.336;2024-01-15T08:59:10;13.00;99.90
83019;DHT22;72834;40.104;18.336;2024-01-15T09:01:38;13.10;99.90
83019;DHT22;72834;40.104;18.336;2024-01-15T09:04:05;13.10;99.90
83019;DHT22;72834;40.104;18.336;2024-01-15T09:06:32;13.20;99.90
83019;DHT22;72834;40.104;18.336;2024-01-15T09:08:59;13.20;99.90
83019;DHT22;72834;40.104;18.336;2024-01-15T09:11:26;13.30;99.90
83019;DHT22;72834;40.104;18.336;2024-01-15T09:13:55;13.30;99.90
83019;DHT22;72834;40.104;18.336;2024-01-15T09:16:21;13.30;99.90
83019;DHT22;72834;40.104;18.336;2024-01-15T09:18:48;13.40;99.90
83019;DHT22;72834;40.104;18.336;2024-01-15T09:21:14;13.40;99.90
83019;DHT22;72834;40.104;18.336;2024-01-15T09:23:40;13.50;99.90
83019;DHT22;72834;40.104;18.336;2024-01-15T09:26:08;13.50;99.90
83019;DHT22;72834;40.104;18.336;2024-01-15T09:28:35;13.50;99.90
83019;DHT22;72834;40.104;18.336;2024-01-15T09:31:01;13.50;99.90
83019;DHT22;72834;40.104;18.336;2024-01-15T09:33:28;13.50;99.90
83019;DHT22;72834;40.104;18.336;2024-01-15T09:35:54;13.50;99.90
83019;DHT22;72834;40.104;18.336;2024-01-15T09:38:20;13.50;99.90
83019;DHT22;72834;40.104;18.336;2024-01-15T09:40:47;13.50;99.90
83019;DHT22;72834;40.104;18.336;2024-01-15T09:43:15;13.60;99.90
83019;DHT22;72834;40.104;18.336;2024-01-15T09:45:42;13.60;99.90
83019;DHT22;72834;40.104;18.336;2024-01-15T09:48:11;13.60;99.90
83019;DHT22;72834;40.104;18.336;2024-01-15T09:50:38;13.60;99.90
83019;DHT22;72834;40.104;18.336;2024-01-15T09:53:05;13.60;99.90
83019;DHT22;72834;40.104;18.336;2024-01-15T09:55:32;13.70;99.90
83019;DHT22;72834;40.104;18.336;2024-01-15T09:58:00;13.70;99.90
83019;DHT22;72834;40.104;18.336;2024-01-15T10:00:29;13.70;99.90
83019;DHT22;72834;40.104;18.336;2024-01-15T10:02:59;13.80;99.90
83019;DHT22;72834;40.104;18.336;2024-01-15T10:05:26;13.90;99.90
83019;DHT22;72834;40.104;18.336;2024-01-15T10:07:54;14.00;99.90
83019;DHT22;72834;40.104;18.336;2024-01-15T10:10:23;14.10;99.90
83019;DHT22;72834;40.104;18.336;2024-01-15T10:12:49;14.20;99.90
83019;DHT22;72834;40.104;18.336;2024-01-15T10:15:16;14.20;99.90
83019;DHT22;72834;40.104;18.336;2024-01-15T10:17:43;14.20;99.90
83019;DHT22;72834;40.104;18.336;2024-01-15T10:20:11;14.20;99.90
83019;DHT22;72834;40.104;18.336;2024-01-15T10:22:41;14.30;99.90
83019;DHT22;72834;40.104;18.336;2024-01-15T10:25:13;14.30;99.90
83019;DHT22;72834;40.104;18.336;2024-01-15T10:27:42;14.40;99.90
83019;DHT22;72834;40.104;18.336;2024-01-15T10:30:10;14.30;99.90
83019;DHT22;72834;40.104;18.336;2024-01-15T10:32:36;14.40;99.90
83019;DHT22;72834;40.104;18.336;2024-01-15T10:35:04;14.50;99.90
83019;DHT22;72834;40.104;18.336;2024-01-15T10:37:33;14.50;99.90
83019;DHT22;72834;40.104;18.336;2024-01-15T10:40:03;14.40;99.90
83019;DHT22;72834;40.104;18.336;2024-01-15T10:42:32;14.40;99.90
83019;DHT22;72834;40.104;18.336;2024-01-15T10:44:59;14.50;99.90
83019;DHT22;72834;40.104;18.336;2024-01-15T10:47:26;14.60;99.90
83019;DHT22;72834;40.104;18.336;2024-01-15T10:49:52;14.70;99.90
83019;DHT22;72834;40.104;18.336;2024-01-15T10:52:19;14.70;99.90
83019;DHT22;72834;40.104;18.336;2024-01-15T10:54:49;14.70;99.90
83019;DHT22;72834;40.104;18.336;2024-01-15T10:57:16;14.70;99.90
83019;DHT22;72834;40.104;18.336;2024-01-15T10:59:43;14.70;99.90
83019;DHT22;72834;40.104;18.336;2024-01-15T11:02:09;14.70;99.90
83019;DHT22;72834;40.104;18.336;2024-01-15T11:04:36;14.80;99.90
83019;DHT22;72834;40.104;18.336;2024-01-15T11:07:03;14.90;99.90
83019;DHT22;72834;40.104;18.336;2024-01-15T11:09:31;15.00;99.90
83019;DHT22;72834;40.104;18.336;2024-01-15T11:12:11;15.10;99.90
83019;DHT22;72834;40.104;18.336;2024-01-15T11:14:46;15.10;99.90
83019;DHT22;72834;40.104;18.336;2024-01-15T11:17:13;15.20;99.90
83019;DHT22;72834;40.104;18.336;2024-01-15T11:19:47;15.20;99.90
83019;DHT22;72834;40.104;18.336;2024-01-15T11:25:02;15.10;99.90
83019;DHT22;72834;40.104;18.336;2024-01-15T11:27:49;15.00;99.90
83019;DHT22;72834;40.104;18.336;2024-01-15T11:30:19;14.90;99.90
83019;DHT22;72834;40.104;18.336;2024-01-15T11:32:46;15.00;99.90
83019;DHT22;72834;40.104;18.336;2024-01-15T11:35:13;15.00;99.90
83019;DHT22;72834;40.104;18.336;2024-01-15T11:40:22;14.90;99.90
83019;DHT22;72834;40.104;18.336;2024-01-15T11:42:49;14.90;99.90
83019;DHT22;72834;40.104;18.336;2024-01-15T11:45:19;14.90;99.90
83019;DHT22;72834;40.104;18.336;2024-01-15T11:48:15;14.90;99.90
83019;DHT22;72834;40.104;18.336;2024-01-15T11:50:46;14.80;99.90
83019;DHT22;72834;40.104;18.336;2024-01-15T11:53:16;15.00;99.90
83019;DHT22;72834;40.104;18.336;2024-01-15T11:55:45;15.10;99.90
83019;DHT22;72834;40.104;18.336;2024-01-15T11:58:11;15.10;99.90
83019;DHT22;72834;40.104;18.336;2024-01-15T12:00:44;15.10;99.90
83019;DHT22;72834;40.104;18.336;2024-01-15T12:03:11;15.10;99.90
83019;DHT22;72834;40.104;18.336;2024-01-15T12:05:38;15.10;99.90
83019;DHT22;72834;40.104;18.336;2024-01-15T12:08:05;15.10;99.90
83019;DHT22;72834;40.104;18.336;2024-01-15T12:10:41;15.10;99.90
83019;DHT22;72834;40.104;18.336;2024-01-15T12:13:14;15.00;99.90
83019;DHT22;72834;40.104;18.336;2024-01-15T12:15:42;15.00;99.90
83019;DHT22;72834;40.104;18.336;2024-01-15T12:18:10;14.90;99.90
83019;DHT22;72834;40.104;18.336;2024-01-15T12:20:36;14.90;99.90
83019;DHT22;72834;40.104;18.336;2024-01-15T12:23:03;14.90;99.90
83019;DHT22;72834;40.104;18.336;2024-01-15T12:25:30;14.80;99.90
83019;DHT22;72834;40.104;18.336;2024-01-15T12:28:00;14.90;99.90
83019;DHT22;72834;40.104;18.336;2024-01-15T12:30:27;14.90;99.90
83019;DHT22;72834;40.104;18.336;2024-01-15T12:32:54;14.90;99.90
83019;DHT22;72834;40.104;18.336;2024-01-15T12:35:21;15.00;99.90
83019;DHT22;72834;40.104;18.336;2024-01-15T12:37:48;14.90;99.90
83019;DHT22;72834;40.104;18.336;2024-01-15T12:40:19;14.90;99.90
83019;DHT22;72834;40.104;18.336;2024-01-15T12:42:45;14.80;99.90
83019;DHT22;72834;40.104;18.336;2024-01-15T12:45:12;14.70;99.90
83019;DHT22;72834;40.104;18.336;2024-01-15T12:47:39;14.70;99.90
83019;DHT22;72834;40.104;18.336;2024-01-15T12:50:07;14.60;99.90
83019;DHT22;72834;40.104;18.336;2024-01-15T12:52:34;14.50;99.90
83019;DHT22;72834;40.104;18.336;2024-01-15T12:55:01;14.40;99.90
83019;DHT22;72834;40.104;18.336;2024-01-15T12:57:27;14.40;99.90
83019;DHT22;72834;40.104;18.336;2024-01-15T12:59:54;14.30;99.90
83019;DHT22;72834;40.104;18.336;2024-01-15T13:02:21;14.30;99.90
83019;DHT22;72834;40.104;18.336;2024-01-15T13:04:48;14.30;99.90
83019;DHT22;72834;40.104;18.336;2024-01-15T13:07:14;14.20;99.90
83019;DHT22;72834;40.104;18.336;2024-01-15T13:09:40;14.10;99.90
83019;DHT22;72834;40.104;18.336;2024-01-15T13:12:07;14.10;99.90
83019;DHT22;72834;40.104;18.336;2024-01-15T13:14:33;14.00;99.90
83019;DHT22;72834;40.104;18.336;2024-01-15T13:17:00;14.00;99.90
83019;DHT22;72834;40.104;18.336;2024-01-15T13:19:27;13.90;99.90
83019;DHT22;72834;40.104;18.336;2024-01-15T13:21:53;13.90;99.90
83019;DHT22;72834;40.104;18.336;2024-01-15T13:24:21;13.90;99.90
83019;DHT22;72834;40.104;18.336;2024-01-15T13:26:47;13.90;99.90
83019;DHT22;72834;40.104;18.336;2024-01-15T13:29:14;13.90;99.90
83019;DHT22;72834;40.104;18.336;2024-01-15T13:31:41;13.80;99.90
83019;DHT22;72834;40.104;18.336;2024-01-15T13:34:07;13.80;99.90
83019;DHT22;72834;40.104;18.336;2024-01-15T13:36:35;13.80;99.90
83019;DHT22;72834;40.104;18.336;2024-01-15T13:39:01;13.80;99.90
83019;DHT22;72834;40.104;18.336;2024-01-15T13:41:28;13.70;99.90
83019;DHT22;72834;40.104;18.336;2024-01-15T13:43:55;13.70;99.90
83019;DHT22;72834;40.104;18.336;2024-01-15T13:46:23;13.70;99.90
83019;DHT22;72834;40.104;18.336;2024-01-15T13:48:50;13.70;99.90
83019;DHT22;72834;40.104;18.336;2024-01-15T13:51:16;13.70;99.90
83019;DHT22;72834;40.104;18.336;2024-01-15T13:53:42;13.60;99.90
83019;DHT22;72834;40.104;18.336;2024-01-15T13:56:09;13.60;99.90
83019;DHT22;72834;40.104;18.336;2024-01-15T13:58:38;13.60;99.90
83019;DHT22;72834;40.104;18.336;2024-01-15T14:01:04;13.60;99.90
83019;DHT22;72834;40.104;18.336;2024-01-15T14:03:32;13.60;99.90
83019;DHT22;72834;40.104;18.336;2024-01-15T14:05:58;13.60;99.90
83019;DHT22;72834;40.104;18.336;2024-01-15T14:08:24;13.60;99.90
83019;DHT22;72834;40.104;18.336;2024-01-15T14:10:51;13.60;99.90
83019;DHT22;72834;40.104;18.336;2024-01-15T14:13:18;13.50;99.90
83019;DHT22;72834;40.104;18.336;2024-01-15T14:15:44;13.50;99.90
83019;DHT22;72834;40.104;18.336;2024-01-15T14:18:11;13.50;99.90
83019;DHT22;72834;40.104;18.336;2024-01-15T14:20:38;13.50;99.90
83019;DHT22;72834;40.104;18.336;2024-01-15T14:23:04;13.50;99.90
83019;DHT22;72834;40.104;18.336;2024-01-15T14:25:30;13.50;99.90
83019;DHT22;72834;40.104;18.336;2024-01-15T14:27:56;13.50;99.90
83019;DHT22;72834;40.104;18.336;2024-01-15T14:30:23;13.50;99.90
83019;DHT22;72834;40.104;18.336;2024-01-15T14:32:49;13.50;99.90
83019;DHT22;72834;40.104;18.336;2024-01-15T14:35:15;13.50;99.90
83019;DHT22;72834;40.104;18.336;2024-01-15T14:37:41;13.50;99.90
83019;DHT22;72834;40.104;18.336;2024-01-15T14:40:08;13.50;99.90
83019;DHT22;72834;40.104;18.336;2024-01-15T14:42:36;13.50;99.90
83019;DHT22;72834;40.104;18.336;2024-01-15T14:45:06;13.50;99.90
83019;DHT22;72834;40.104;18.336;2024-01-15T14:47:41;13.50;99.90
83019;DHT22;72834;40.104;18.336;2024-01-15T14:50:09;13.50;99.90
83019;DHT22;72834;40.104;18.336;2024-01-15T14:52:36;13.50;99.90
83019;DHT22;72834;40.104;18.336;2024-01-15T14:55:02;13.50;99.90
83019;DHT22;72834;40.104;18.336;2024-01-15T14:57:29;13.50;99.90
83019;DHT22;72834;40.104;18.336;2024-01-15T14:59:56;13.50;99.90
83019;DHT22;72834;40.104;18.336;2024-01-15T15:02:23;13.50;99.90
83019;DHT22;72834;40.104;18.336;2024-01-15T15:04:52;13.50;99.90
83019;DHT22;72834;40.104;18.336;2024-01-15T15:07:18;13.50;99.90
83019;DHT22;72834;40.104;18.336;2024-01-15T15:09:44;13.50;99.90
83019;DHT22;72834;40.104;18.336;2024-01-15T15:12:11;13.40;99.90
83019;DHT22;72834;40.104;18.336;2024-01-15T15:14:37;13.50;99.90
83019;DHT22;72834;40.104;18.336;2024-01-15T15:17:05;13.40;99.90
83019;DHT22;72834;40.104;18.336;2024-01-15T15:19:32;13.40;99.90
83019;DHT22;72834;40.104;18.336;2024-01-15T15:21:59;13.40;99.90